Aérodrome :
LOGIN :

S'inscrire | Disclaimer

   EN    FR    IT 

 










Légende :    VFR   VFR Marginal   IFR   IFR Intensif   IFR Très Intensif
Visi : 
Plafond : 
>= 8 km
>= 3000ft
5 à 8 km
1000 à 3000 ft
1500m à 5 km
500 à 1000 ft
800 à 1500m
200 à 500 ft
< 800m
< 200 ft
Symboles :   Orages  Brouillard  Fortes neiges  Fortes précipitations  Vent > 20 kt
SIGMETs :   Divers  Orages  Givrage  Turbulence  Onde Orograph.  Cendres Volcan.







- Altitude de l'aérodrome : 538 ft
- Code IATA : TNF
- Voir les cartes d'approche


LFPN - Toussus Le Noble

DERNIER METAR :
  • 281200Z AUTO 33004KT 240V020 9999 SCT032 SCT039 14/06 Q1016 TEMPO 30015G25KT SHRA BKN030 SCT035CB

METARs EXPIRÉS :
  • 281130Z AUTO 28004KT 240V040 9999 SCT023/// SCT028/// ///TCU 11/05 Q1016 TEMPO 30015G25KT SHRA BKN030 SCT035CB
  • 281100Z AUTO 29004KT 220V030 9999 BKN020/// BKN026/// BKN033/// ///TCU 11/05 Q1017 TEMPO 30015G25KT 4000 -SHRA BKN035
  • 281030Z AUTO 31005KT 260V350 9999 FEW012/// SCT018/// BKN025/// ///CB 11/07 Q1017 TEMPO 30015G25KT 4000 -SHRA BKN035
  • 281000Z AUTO 33007KT 300V010 9999 OVC011 09/07 Q1017 BECMG BKN035
  • 280930Z AUTO 32006KT 280V350 9999 OVC010 09/07 Q1017 BECMG BKN035
  • 280900Z AUTO 31005KT 270V330 9999 BKN009 OVC050 08/06 Q1017 BECMG BKN035

TAF TAF LFPN
Valide du 28 à 12h jusqu'au 28 à 21h UTC


281100Z 2812/2821 33005KT 9999 BKN025
TEMPO 2812/2818 -SHRA BKN030TCU
PROB30
TEMPO 2812/2816 30015G25KT SHRA BKN030 SCT035CB
ATIS : +33 1 39 56 54 70
Pas de NOTAMs connus pour ce terrain.



MET'MAP, la Météo Aéronautique d'un coup d'oeil ! - Copyright ORBIFLY Décembre 2007 - Disclaimer

ORBIFLY MET'MAP TEAM :

Programmation & Développement : Alexandra Zaïnal
Conception & Développement : Baudouin d'Aumeries
Co-Programmation & Développement : Marc-Olivier Méhu
Soutien technique & logistique : Manuel Goepfert

Contact : metmap@orbifly.com




SOURCES & CREDITS :

   NOAA